Terminal Aerodrome Forecast
Issued by NWS

Home | Current Version | Previous Version | Text Only | Print | Product List | Glossary On
Versions: 1 2 3 4 5 6 7 8 9 10 11 12 13 14
557
FTUS41 KCAR 291126
TAFFVE
TAF
KFVE 291126Z 2912/3012 11008KT P6SM -RA OVC010
     FM291400 15010KT P6SM BKN015
     FM300400 15006KT P6SM VCSH SCT007 OVC015
     FM300900 15006KT P6SM OVC007=

USA.gov is the U.S. government's official web portal to all federal, state and local government web resources and services.